createdAt,value
2022-08-18T00:08:38.397Z,13026.03711
2022-08-18T00:23:41.086Z,13605.16016
2022-08-18T00:38:43.392Z,13784.07617
2022-08-18T00:53:45.706Z,11234.99219
2022-08-18T01:08:48.313Z,4219.59619
2022-08-18T01:23:50.807Z,3098.07422
2022-08-18T01:38:53.234Z,1377.6543
2022-08-18T01:53:55.508Z,1175.19653
2022-08-18T02:08:57.795Z,907.76404
2022-08-18T02:24:00.550Z,635.62317
2022-08-18T02:39:02.814Z,366.30725
2022-08-18T02:54:05.131Z,149.72456
2022-08-18T03:09:07.348Z,42.37488
2022-08-18T03:24:10.753Z,5.64998
2022-08-18T03:39:13.075Z,0
2022-08-18T03:54:15.314Z,0
2022-08-18T04:09:17.570Z,0
2022-08-18T04:24:19.805Z,0
2022-08-18T04:39:22.029Z,0
2022-08-18T04:54:24.257Z,0
2022-08-18T05:09:26.874Z,0
2022-08-18T05:24:36.813Z,0
2022-08-18T05:39:40.027Z,0
2022-08-18T05:54:42.337Z,0
2022-08-18T06:09:44.713Z,0
2022-08-18T06:24:46.933Z,0
2022-08-18T06:39:49.228Z,0
2022-08-18T06:54:51.783Z,0
2022-08-18T07:09:54.082Z,0
2022-08-18T07:24:56.282Z,0
2022-08-18T07:39:58.601Z,0
2022-08-18T07:55:00.945Z,0
2022-08-18T08:10:03.178Z,0
2022-08-18T08:25:17.467Z,0
2022-08-18T08:40:30.824Z,0
2022-08-18T08:55:33.076Z,0
2022-08-18T09:10:35.309Z,0
2022-08-18T09:25:37.489Z,0
2022-08-18T09:41:02.012Z,0
2022-08-18T09:56:05.657Z,0
2022-08-18T10:11:09.428Z,0
2022-08-18T10:26:13.435Z,0
2022-08-18T10:41:17.739Z,0
2022-08-18T10:56:26.694Z,0
2022-08-18T11:11:37.064Z,0
2022-08-18T11:26:41.451Z,0
2022-08-18T11:41:48.801Z,0
2022-08-18T11:56:52.918Z,0
2022-08-18T12:11:56.194Z,0.94166
2022-08-18T12:27:00.931Z,6.59165
2022-08-18T12:42:03.417Z,45.19987
2022-08-18T12:57:06.716Z,143.13292
2022-08-18T13:12:14.608Z,300.39078
2022-08-18T13:27:23.061Z,479.30695
2022-08-18T13:42:29.367Z,686.47302
2022-08-18T13:57:33.752Z,3474.73975
2022-08-18T14:12:36.143Z,7235.74561
2022-08-18T14:27:41.825Z,3497.33984
2022-08-18T14:42:58.815Z,5883.51611
2022-08-18T14:58:01.151Z,3970.05518
2022-08-18T15:13:03.465Z,4578.37012
2022-08-18T15:28:05.921Z,6108.57373
2022-08-18T15:43:18.912Z,6948.53809
2022-08-18T15:58:22.463Z,7041.7627
2022-08-18T16:13:29.137Z,7614.29443
2022-08-18T16:28:35.024Z,7086.021
2022-08-18T16:43:37.778Z,7139.6958
2022-08-18T16:58:40.074Z,7301.66211
2022-08-18T17:13:42.396Z,7055.8877
2022-08-18T17:28:50.309Z,7141.5791
2022-08-18T17:43:53.099Z,7053.06299
2022-08-18T17:58:55.460Z,7078.48779
2022-08-18T18:13:59.218Z,7079.4292
2022-08-18T18:29:04.237Z,7486.22803
2022-08-18T18:44:08.771Z,7600.16943
2022-08-18T18:59:11.016Z,7564.38623
2022-08-18T19:14:13.361Z,7774.37744
2022-08-18T19:29:15.644Z,7990.01855
2022-08-18T19:44:17.979Z,8453.31738
2022-08-18T19:59:21.442Z,8532.41699
2022-08-18T20:14:24.012Z,8779.13281
2022-08-18T20:29:26.300Z,8296.05957
2022-08-18T20:44:29.473Z,8065.35156
2022-08-18T20:59:32.275Z,8232.02637
2022-08-18T21:14:34.561Z,8157.63477
2022-08-18T21:29:48.997Z,8136.91797
2022-08-18T21:44:52.040Z,7674.56104
2022-08-18T21:59:54.414Z,7430.66992
2022-08-18T22:14:56.693Z,8276.28418
2022-08-18T22:29:58.996Z,8933.56543
2022-08-18T22:45:04.498Z,9502.33105
2022-08-18T23:00:07.434Z,9967.5127
2022-08-18T23:15:11.672Z,10493.90234
2022-08-18T23:30:13.977Z,11146.47559
2022-08-18T23:45:16.277Z,11518.43262
